TAF KAZO
KAZO 280541Z 2806/2906 34005KT 2SM -FZDZ BR OVC003 FM280700 32005KT 5SM -FZDZ BR OVC006 FM281100 29010KT P6SM BKN012 OVC022 FM281300 29014G22KT P6SM OVC035 FM290000 30010KT P6SM BKN035=
METAR KAZO
WC KAZO
WS KAZO
WV KAZO